Fulton County Airport Brown Field
KFTY : now visible

Airfield :











YOU CAN JOIN US ON...

 
LOGIN :

Register | Disclaimer

   EN    FR    IT 

 









Legend :    VFR   Marginal VFR   IFR   Intensive IFR   Very Intensive IFR
Visi :
Ceiling :
>= 8 km
>= 3000ft
5 to 8 km
1000 to 3000 ft
1500m to 5 km
500 to 1000 ft
800 to 1500m
200 to 500 ft
< 800m
< 200 ft
Symbols :   Thunderstorms  Fog  Heavy snow  Heavy precipitations  Wind > 20 kt






- Airport Elevation : 841 ft


KFTY - Fulton County Brown Field

CURRENT METAR :
  • 250353Z 00000KT 10SM -RA BKN005 BKN025 OVC037 19/19 A2996 RMK AO2 SLP136 P0005 T01890189 $

EXPIRED METARs :
  • 250329Z 36003KT 5SM RA BR BKN004 OVC038 19/19 A2995 RMK AO2 P0003 T01890189 $
  • 250253Z 06004KT 6SM -RA BR FEW007 BKN036 OVC050 19/19 A2995 RMK AO2 SLP135 P0006 60057 T01890189 51002
  • 250231Z 04003KT 10SM -RA SCT008 BKN040 OVC080 19/19 A2995 RMK AO2 P0004 T01890189
  • 250153Z 02004KT 3SM +RA BR BKN037 OVC046 19/19 A2995 RMK AO2 SLP136 P0022 T01890189 $
  • 250140Z 02006KT 2SM +RA BR FEW004 BKN031 OVC042 19/19 A2995 RMK AO2 P0016 T01890189 $
  • 250037Z 00000KT 3SM +RA BR SCT006 BKN025 OVC035 19/19 A2995 RMK AO2 P0013 T01940194 $

TAF KFTY
Valid from the 25 at 04:00 until the 26 at 00:00 UTC


250334Z 2504/2524 VRB03KT 5SM -SHRA BR BKN005 BKN035
FM250700 00000KT 3SM BR OVC004
FM251600 28004KT P6SM BKN012
FM252200 03004KT P6SM SCT025 BKN035
KZTL FIR / North America



MET'MAP, your aeronautical weather chart ! - Copyright ORBIFLY December 2007 - Disclaimer

ORBIFLY MET'MAP TEAM :

Programming & Development : Alexandra Zaïnal
Concept & original design : Baudouin d'Aumeries
Assistance for programming : Marc-Olivier Méhu
Technical & hardware support : Manuel Goepfert

Contact : metmap@orbifly.com




SOURCES & CREDITS :

   NOAA       Earth
Advisory